Time;durP1;ratioP1;P1;durP2;ratioP2;P2;SDS_P1;SDS_P2;PMS_P1;PMS_P2;Temp;Humidity;BMP_temperature;BMP_pressure;BME280_temperature;BME280_humidity;BME280_pressure;Samples;Min_cycle;Max_cycle;Signal;HPM_P1;HPM_P2
2023/04/03 00:01:52;;;;;;;;;;;;;;;0.72;100.00;102969.50;5032451;28;20014;-72
2023/04/03 00:04:18;;;;;;;;;;;;;;;0.66;100.00;102972.16;5046755;28;20114;-72
2023/04/03 00:06:43;;;;;;;;;;;;;;;0.70;100.00;102979.19;5027676;28;19966;-73
2023/04/03 00:09:08;;;;;;;;;;;;;;;0.69;100.00;102977.44;5031569;28;20027;-72
2023/04/03 00:11:33;;;;;;;;;;;;;;;0.72;100.00;102977.44;5044781;28;19924;-72
2023/04/03 00:13:59;;;;;;;;;;;;;;;0.65;100.00;102980.97;5032708;28;19923;-72
2023/04/03 00:16:24;;;;;;;;;;;;;;;0.48;100.00;102949.25;5028670;28;19948;-72
2023/04/03 00:18:49;;;;;;;;;;;;;;;0.70;100.00;102978.28;5050750;28;19924;-72
2023/04/03 00:21:15;;;;;;;;;;;;;;;0.72;100.00;102980.06;5029490;28;19944;-72
2023/04/03 00:23:40;;;;;;;;;;;;;;;0.74;100.00;102991.53;5050345;28;19927;-72
2023/04/03 00:26:05;;;;;;;;;;;;;;;0.78;100.00;102980.97;5029579;28;20033;-72
2023/04/03 00:28:31;;;;;;;;;;;;;;;0.82;100.00;102983.56;5042794;28;19927;-72
2023/04/03 00:30:56;;;;;;;;;;;;;;;0.90;100.00;102991.47;5024747;28;19924;-72
2023/04/03 00:33:21;;;;;;;;;;;;;;;0.95;100.00;102975.59;5031499;28;19927;-72
2023/04/03 00:35:47;;;;;;;;;;;;;;;0.94;100.00;102979.13;5047836;28;19921;-72
2023/04/03 00:38:13;;;;;;;;;;;;;;;0.97;100.00;102981.75;5028672;28;19991;-72
2023/04/03 00:40:39;;;;;;;;;;;;;;;0.98;100.00;102981.78;5029753;28;20535;-72
2023/04/03 00:43:10;;;;;;;;;;;;;;;0.95;100.00;102976.50;5049598;28;20349;-72
2023/04/03 00:45:36;;;;;;;;;;;;;;;1.03;100.00;102985.28;5015220;28;19923;-72
2023/04/03 00:48:02;;;;;;;;;;;;;;;1.12;100.00;102986.13;5034204;28;19925;-72
2023/04/03 00:50:28;;;;;;;;;;;;;;;1.17;100.00;102987.88;5043555;28;20034;-72
2023/04/03 00:52:53;;;;;;;;;;;;;;;1.20;100.00;102984.34;5045682;28;19935;-72
2023/04/03 00:55:18;;;;;;;;;;;;;;;1.27;100.00;102995.78;5040825;28;20009;-72
2023/04/03 00:57:44;;;;;;;;;;;;;;;1.28;100.00;102993.13;5029909;28;19924;-72
2023/04/03 01:00:10;;;;;;;;;;;;;;;1.31;100.00;103000.16;5050890;28;20039;-72
2023/04/03 01:02:36;;;;;;;;;;;;;;;1.26;100.00;102984.31;5043199;28;20878;-72
2023/04/03 01:05:01;;;;;;;;;;;;;;;1.27;100.00;102993.13;5027961;28;19996;-72
2023/04/03 01:07:27;;;;;;;;;;;;;;;1.27;100.00;102988.72;5012223;28;20354;-72
2023/04/03 01:09:54;;;;;;;;;;;;;;;1.25;100.00;102987.84;5028718;28;19931;-72
2023/04/03 01:12:20;;;;;;;;;;;;;;;1.27;100.00;102995.78;5048032;28;20292;-72
2023/04/03 01:14:46;;;;;;;;;;;;;;;1.24;100.00;102999.31;5055823;28;19924;-72
2023/04/03 01:17:30;;;;;;;;;;;;;;;1.23;100.00;102994.91;5037055;28;19924;-72
2023/04/03 01:20:10;;;;;;;;;;;;;;;1.16;100.00;102996.72;5054853;28;20051;-72
2023/04/03 01:22:39;;;;;;;;;;;;;;;1.14;100.00;102997.59;5056548;28;19966;-72
2023/04/03 01:25:05;;;;;;;;;;;;;;;1.10;100.00;102999.38;5034635;28;19947;-72
2023/04/03 01:27:30;;;;;;;;;;;;;;;1.11;100.00;102994.94;5051712;28;20363;-72
2023/04/03 01:29:55;;;;;;;;;;;;;;;1.09;100.00;103000.25;5045359;28;20374;-72
2023/04/03 01:32:20;;;;;;;;;;;;;;;1.07;100.00;102995.84;5029409;28;20698;-72
2023/04/03 01:34:45;;;;;;;;;;;;;;;0.99;100.00;103004.69;5047308;28;20378;-72
2023/04/03 01:37:11;;;;;;;;;;;;;;;1.00;100.00;103002.91;5045542;28;19928;-72
2023/04/03 01:39:36;;;;;;;;;;;;;;;0.96;100.00;103002.06;5028250;28;20323;-72
2023/04/03 01:42:01;;;;;;;;;;;;;;;0.97;100.00;103010.84;5046948;28;20338;-72
2023/04/03 01:44:26;;;;;;;;;;;;;;;0.96;100.00;103006.44;5027437;28;19963;-72
2023/04/03 01:46:52;;;;;;;;;;;;;;;0.92;100.00;103015.31;5047242;28;20019;-72
2023/04/03 01:49:17;;;;;;;;;;;;;;;0.95;100.00;103002.94;5004723;28;19925;-72
2023/04/03 01:51:42;;;;;;;;;;;;;;;1.02;100.00;103002.03;5033852;28;20371;-72
2023/04/03 01:54:07;;;;;;;;;;;;;;;1.01;100.00;103008.22;5032324;28;19970;-72
2023/04/03 01:56:33;;;;;;;;;;;;;;;1.00;100.00;103005.56;5007533;28;19928;-72
2023/04/03 01:58:58;;;;;;;;;;;;;;;0.94;100.00;103009.13;5044228;28;19940;-72
2023/04/03 02:01:23;;;;;;;;;;;;;;;0.94;100.00;103009.13;5027577;28;19952;-72
2023/04/03 02:03:48;;;;;;;;;;;;;;;0.95;100.00;103005.59;5024833;28;19977;-72
2023/04/03 02:06:14;;;;;;;;;;;;;;;0.96;100.00;103007.34;5034740;28;20252;-72
2023/04/03 02:08:40;;;;;;;;;;;;;;;0.96;100.00;103010.00;5026339;28;19924;-72
2023/04/03 02:11:05;;;;;;;;;;;;;;;0.95;100.00;103008.22;5026051;28;19964;-72
2023/04/03 02:13:30;;;;;;;;;;;;;;;0.91;100.00;103018.84;5024599;28;19971;-72
2023/04/03 02:15:55;;;;;;;;;;;;;;;0.89;100.00;103018.81;5044511;28;20694;-72
2023/04/03 02:18:20;;;;;;;;;;;;;;;0.93;100.00;103017.94;5024296;28;20404;-72
2023/04/03 02:20:46;;;;;;;;;;;;;;;0.97;100.00;103024.09;5046255;28;20418;-72
2023/04/03 02:23:11;;;;;;;;;;;;;;;1.01;100.00;103020.56;5041746;28;19920;-72
2023/04/03 02:25:36;;;;;;;;;;;;;;;1.01;100.00;103020.56;5039815;28;19981;-72
2023/04/03 02:28:02;;;;;;;;;;;;;;;1.01;100.00;103021.44;5028782;28;20019;-72
2023/04/03 02:30:27;;;;;;;;;;;;;;;0.99;100.00;103023.22;5030497;28;19924;-72
2023/04/03 02:32:52;;;;;;;;;;;;;;;1.01;100.00;103021.44;5036425;28;19916;-72
2023/04/03 02:35:17;;;;;;;;;;;;;;;1.01;100.00;103029.38;5026379;28;19931;-72
2023/04/03 02:37:42;;;;;;;;;;;;;;;1.02;100.00;103032.91;5025975;28;20644;-72
2023/04/03 02:40:08;;;;;;;;;;;;;;;1.03;100.00;103034.66;5025976;28;20865;-72
2023/04/03 02:42:33;;;;;;;;;;;;;;;1.00;100.00;103027.63;5044813;28;20673;-72
2023/04/03 02:45:00;;;;;;;;;;;;;;;0.97;100.00;103024.97;5025569;28;19920;-72
2023/04/03 02:47:25;;;;;;;;;;;;;;;0.91;100.00;103029.41;5027021;28;20191;-72
2023/04/03 02:49:52;;;;;;;;;;;;;;;0.89;100.00;103024.09;5025351;28;19928;-72
2023/04/03 02:52:18;;;;;;;;;;;;;;;0.93;100.00;103025.88;5042536;28;19935;-72
2023/04/03 02:54:43;;;;;;;;;;;;;;;0.93;100.00;103025.00;5016749;28;19920;-72
2023/04/03 02:57:11;;;;;;;;;;;;;;;0.87;100.00;103023.22;5033036;28;19956;-72
2023/04/03 02:59:37;;;;;;;;;;;;;;;0.88;100.00;103023.25;5034543;28;19966;-72
2023/04/03 03:02:02;;;;;;;;;;;;;;;0.92;100.00;103028.53;5033963;28;19924;-72
2023/04/03 03:04:27;;;;;;;;;;;;;;;0.93;100.00;103038.22;5035766;28;19924;-72
2023/04/03 03:06:52;;;;;;;;;;;;;;;0.94;100.00;103029.38;5061568;28;19926;-72
2023/04/03 03:09:18;;;;;;;;;;;;;;;0.91;100.00;103032.94;5022395;28;19975;-72
2023/04/03 03:11:43;;;;;;;;;;;;;;;0.94;100.00;103029.38;5057785;28;20042;-72
2023/04/03 03:14:08;;;;;;;;;;;;;;;0.93;100.00;103032.94;5056381;28;19982;-72
2023/04/03 03:16:33;;;;;;;;;;;;;;;0.88;100.00;103030.28;5056107;28;19932;-72
2023/04/03 03:18:59;;;;;;;;;;;;;;;0.81;100.00;103029.41;5037813;28;20272;-72
2023/04/03 03:21:24;;;;;;;;;;;;;;;0.80;100.00;103035.59;5037686;28;19928;-72
2023/04/03 03:23:50;;;;;;;;;;;;;;;0.82;100.00;103036.47;5023145;28;22412;-72
2023/04/03 03:26:15;;;;;;;;;;;;;;;0.82;100.00;103033.81;5057979;28;19920;-72
2023/04/03 03:28:40;;;;;;;;;;;;;;;0.78;100.00;103036.50;5048449;28;19920;-72
2023/04/03 03:31:06;;;;;;;;;;;;;;;0.80;100.00;103039.97;5026500;28;19932;-72
2023/04/03 03:33:32;;;;;;;;;;;;;;;0.72;100.00;103042.66;5046576;28;19920;-72
2023/04/03 03:35:57;;;;;;;;;;;;;;;0.67;100.00;103049.69;5042016;28;19967;-72
2023/04/03 03:38:22;;;;;;;;;;;;;;;0.68;100.00;103047.06;5044233;28;19924;-72
2023/04/03 03:40:48;;;;;;;;;;;;;;;0.66;100.00;103053.25;5039036;28;20379;-72
2023/04/03 03:43:14;;;;;;;;;;;;;;;0.63;100.00;103054.13;5028574;28;19927;-72
2023/04/03 03:45:39;;;;;;;;;;;;;;;0.59;100.00;103058.53;5030839;28;19928;-72
2023/04/03 03:48:04;;;;;;;;;;;;;;;0.55;100.00;103059.41;5043464;28;19997;-72
2023/04/03 03:50:30;;;;;;;;;;;;;;;0.35;100.00;103032.09;5041126;28;20844;-72
2023/04/03 03:52:55;;;;;;;;;;;;;;;0.48;100.00;103059.41;5044540;28;19920;-72
2023/04/03 03:55:20;;;;;;;;;;;;;;;0.40;100.00;103059.38;5046739;28;19970;-72
2023/04/03 03:57:45;;;;;;;;;;;;;;;0.39;100.00;103062.94;5043576;28;19924;-72
2023/04/03 04:00:11;;;;;;;;;;;;;;;0.35;100.00;103061.16;5025498;28;19924;-72
2023/04/03 04:02:36;;;;;;;;;;;;;;;0.36;100.00;103069.09;5037806;28;20101;-72
2023/04/03 04:05:01;;;;;;;;;;;;;;;0.31;100.00;103065.56;5034253;28;19920;-72
2023/04/03 04:07:29;;;;;;;;;;;;;;;0.33;100.00;103070.84;5030828;28;19978;-72
2023/04/03 04:09:54;;;;;;;;;;;;;;;0.28;100.00;103074.38;5035551;28;20043;-72
2023/04/03 04:12:20;;;;;;;;;;;;;;;0.25;100.00;103069.06;5017106;28;20408;-72
2023/04/03 04:14:46;;;;;;;;;;;;;;;0.22;100.00;103071.72;5027420;28;19953;-72
2023/04/03 04:17:11;;;;;;;;;;;;;;;0.23;100.00;103081.41;5015002;28;19994;-72
2023/04/03 04:19:36;;;;;;;;;;;;;;;0.25;100.00;103076.13;5021628;28;19928;-72
2023/04/03 04:22:02;;;;;;;;;;;;;;;0.24;100.00;103075.25;5044537;28;19960;-72
2023/04/03 04:24:27;;;;;;;;;;;;;;;0.29;100.00;103075.22;5006357;28;20030;-72
2023/04/03 04:26:52;;;;;;;;;;;;;;;0.26;100.00;103076.13;5033636;28;19942;-72
2023/04/03 04:29:17;;;;;;;;;;;;;;;0.27;100.00;103069.06;5029956;28;19929;-72
2023/04/03 04:31:42;;;;;;;;;;;;;;;0.19;100.00;103074.34;5023535;28;19920;-72
2023/04/03 04:34:08;;;;;;;;;;;;;;;0.20;100.00;103072.59;5013799;28;20006;-72
2023/04/03 04:36:33;;;;;;;;;;;;;;;0.23;100.00;103070.84;5016174;28;19997;-72
2023/04/03 04:38:58;;;;;;;;;;;;;;;0.27;100.00;103074.34;5043837;28;19943;-72
2023/04/03 04:41:24;;;;;;;;;;;;;;;0.26;100.00;103076.13;5030992;28;19920;-72
2023/04/03 04:43:49;;;;;;;;;;;;;;;0.24;100.00;103077.00;5041856;28;20006;-72
2023/04/03 04:46:15;;;;;;;;;;;;;;;0.20;100.00;103077.88;5032094;28;20187;-72
2023/04/03 04:48:40;;;;;;;;;;;;;;;0.20;100.00;103080.53;5022397;28;20326;-72
2023/04/03 04:51:05;;;;;;;;;;;;;;;0.14;100.00;103090.19;5039256;28;20402;-72
2023/04/03 04:53:31;;;;;;;;;;;;;;;0.17;100.00;103088.44;5021728;28;19916;-72
2023/04/03 04:55:56;;;;;;;;;;;;;;;0.16;100.00;103097.25;5039624;28;20413;-72
2023/04/03 04:58:21;;;;;;;;;;;;;;;0.09;100.00;103099.88;5020965;28;19982;-72
2023/04/03 05:00:46;;;;;;;;;;;;;;;0.06;100.00;103091.06;5036087;28;19927;-72
2023/04/03 05:03:12;;;;;;;;;;;;;;;0.04;100.00;103100.75;5040022;28;19920;-72
2023/04/03 05:05:37;;;;;;;;;;;;;;;-0.02;100.00;103097.19;5037429;28;20410;-72
2023/04/03 05:08:02;;;;;;;;;;;;;;;-0.06;100.00;103106.00;5037075;28;20458;-72
2023/04/03 05:10:28;;;;;;;;;;;;;;;-0.13;100.00;103108.59;5050479;28;19933;-72
2023/04/03 05:12:53;;;;;;;;;;;;;;;-0.19;100.00;103106.84;5035790;28;19920;-72
2023/04/03 05:15:18;;;;;;;;;;;;;;;-0.20;100.00;103103.28;5054179;28;20340;-72
2023/04/03 05:17:43;;;;;;;;;;;;;;;-0.20;100.00;103105.06;5037002;28;19959;-72
2023/04/03 05:20:09;;;;;;;;;;;;;;;-0.20;100.00;103107.72;5052669;28;20476;-72
2023/04/03 05:22:34;;;;;;;;;;;;;;;-0.21;100.00;103104.16;5037379;28;20331;-72
2023/04/03 05:25:00;;;;;;;;;;;;;;;-0.27;100.00;103104.16;5021971;28;20268;-72
2023/04/03 05:27:27;;;;;;;;;;;;;;;-0.19;100.00;103106.84;5054607;28;19975;-72
2023/04/03 05:29:53;;;;;;;;;;;;;;;-0.21;100.00;103108.59;5037363;28;20161;-72
2023/04/03 05:32:18;;;;;;;;;;;;;;;-0.30;100.00;103106.78;5036802;28;19920;-72
2023/04/03 05:34:43;;;;;;;;;;;;;;;-0.27;100.00;103104.16;5022230;28;19928;-72
2023/04/03 05:37:08;;;;;;;;;;;;;;;-0.26;100.00;103103.25;5027928;28;19963;-72
2023/04/03 05:39:33;;;;;;;;;;;;;;;-0.22;100.00;103104.19;5054848;28;20040;-72
2023/04/03 05:41:59;;;;;;;;;;;;;;;-0.21;100.00;103105.94;5022369;28;19920;-72
2023/04/03 05:44:24;;;;;;;;;;;;;;;-0.20;100.00;103102.44;5054594;28;20077;-71
2023/04/03 05:46:49;;;;;;;;;;;;;;;-0.16;100.00;103104.22;5050190;28;19952;-72
2023/04/03 05:49:15;;;;;;;;;;;;;;;-0.06;100.00;103115.69;5020182;28;19973;-72
2023/04/03 05:51:40;;;;;;;;;;;;;;;-0.02;100.00;103118.34;5020740;28;19955;-72
2023/04/03 05:54:25;;;;;;;;;;;;;;;0.08;100.00;103128.94;5020825;28;20007;-72
2023/04/03 05:56:50;;;;;;;;;;;;;;;0.15;100.00;103128.06;5033371;28;19924;-72
2023/04/03 05:59:16;;;;;;;;;;;;;;;0.23;100.00;103128.97;5052032;28;20410;-72
2023/04/03 06:01:41;;;;;;;;;;;;;;;0.24;100.00;103132.50;5054526;28;19920;-72
2023/04/03 06:04:08;;;;;;;;;;;;;;;0.35;100.00;103130.75;5039040;28;19926;-72
2023/04/03 06:06:47;;;;;;;;;;;;;;;0.08;100.00;103073.47;5052051;28;20142;-72
2023/04/03 06:09:13;;;;;;;;;;;;;;;0.46;100.00;103127.25;5015726;28;19923;-72
2023/04/03 06:11:38;;;;;;;;;;;;;;;0.48;100.00;103126.38;5029463;28;19924;-72
2023/04/03 06:14:04;;;;;;;;;;;;;;;0.55;100.00;103127.25;5036488;28;19924;-72
2023/04/03 06:16:29;;;;;;;;;;;;;;;0.68;100.00;103130.78;5035233;28;19931;-72
2023/04/03 06:18:55;;;;;;;;;;;;;;;0.79;100.00;103133.47;5035955;28;19920;-72
2023/04/03 06:21:20;;;;;;;;;;;;;;;0.85;100.00;103133.44;5056821;28;19980;-72
2023/04/03 06:23:45;;;;;;;;;;;;;;;0.95;100.00;103136.97;5029318;28;19931;-72
2023/04/03 06:26:11;;;;;;;;;;;;;;;1.09;100.00;103143.13;5014416;28;19931;-72
2023/04/03 06:28:36;;;;;;;;;;;;;;;1.20;100.00;103140.47;5037477;28;19947;-72
2023/04/03 06:31:01;;;;;;;;;;;;;;;1.30;100.00;103138.69;5019318;28;20294;-72
2023/04/03 06:33:26;;;;;;;;;;;;;;;1.46;100.00;103140.41;5016622;28;20298;-72
2023/04/03 06:35:55;;;;;;;;;;;;;;;1.62;100.00;103143.03;5048495;28;20288;-72
2023/04/03 06:38:20;;;;;;;;;;;;;;;1.73;100.00;103143.84;5052500;28;20023;-72
2023/04/03 06:40:46;;;;;;;;;;;;;;;1.84;100.00;103146.50;5035718;28;19920;-72
2023/04/03 06:43:12;;;;;;;;;;;;;;;1.95;100.00;103136.72;5037491;28;19942;-72
2023/04/03 06:45:37;;;;;;;;;;;;;;;1.98;100.00;103151.72;5036076;28;19927;-73
2023/04/03 06:48:02;;;;;;;;;;;;;;;2.13;100.00;103153.41;5049020;28;19927;-73
2023/04/03 06:50:27;;;;;;;;;;;;;;;2.16;100.00;103149.88;5034067;28;19925;-72
2023/04/03 06:52:52;;;;;;;;;;;;;;;2.22;100.00;103152.50;5016998;28;20543;-73
2023/04/03 06:55:18;;;;;;;;;;;;;;;2.44;100.00;103149.72;5032882;28;19928;-72
2023/04/03 06:57:43;;;;;;;;;;;;;;;2.58;100.00;103150.47;5026208;28;19928;-72
2023/04/03 07:00:09;;;;;;;;;;;;;;;2.79;100.00;103157.41;5029605;28;20345;-72
2023/04/03 07:02:35;;;;;;;;;;;;;;;2.75;100.00;103154.81;5036527;28;19924;-72
2023/04/03 07:05:00;;;;;;;;;;;;;;;2.95;100.00;103151.97;5020230;28;19928;-73
2023/04/03 07:07:25;;;;;;;;;;;;;;;3.01;100.00;103154.56;5047310;28;19921;-73
2023/04/03 07:09:51;;;;;;;;;;;;;;;3.24;100.00;103166.75;5035967;28;19924;-73
2023/04/03 07:12:16;;;;;;;;;;;;;;;3.36;100.00;103161.34;5034639;28;19924;-72
2023/04/03 07:14:42;;;;;;;;;;;;;;;3.49;100.00;103175.38;5037775;28;19927;-72
2023/04/03 07:17:07;;;;;;;;;;;;;;;3.80;100.00;103166.16;5034793;28;20265;-74
2023/04/03 07:19:32;;;;;;;;;;;;;;;3.68;100.00;103167.19;5035729;28;20472;-73
2023/04/03 07:21:58;;;;;;;;;;;;;;;3.83;100.00;103180.31;5020619;28;20039;-73
2023/04/03 07:24:23;;;;;;;;;;;;;;;3.89;100.00;103180.22;5040133;28;20332;-73
2023/04/03 07:26:49;;;;;;;;;;;;;;;4.05;100.00;103172.06;5048638;28;20397;-73
2023/04/03 07:29:14;;;;;;;;;;;;;;;4.09;100.00;103184.44;5054364;28;20466;-74
2023/04/03 07:31:41;;;;;;;;;;;;;;;4.14;100.00;103177.25;5033069;28;19916;-73
2023/04/03 07:34:06;;;;;;;;;;;;;;;4.18;100.00;103184.28;5048802;28;19921;-72
2023/04/03 07:36:33;;;;;;;;;;;;;;;4.02;98.83;103183.59;5054975;28;19920;-73
2023/04/03 07:38:58;;;;;;;;;;;;;;;4.18;100.00;103184.28;5036587;28;20275;-74
2023/04/03 07:41:23;;;;;;;;;;;;;;;4.18;99.61;103186.09;5035897;28;19928;-73
2023/04/03 07:43:49;;;;;;;;;;;;;;;4.43;100.00;103180.44;5016191;28;19955;-72
2023/04/03 07:46:14;;;;;;;;;;;;;;;4.68;100.00;103183.59;5038326;28;19985;-73
2023/04/03 07:48:40;;;;;;;;;;;;;;;4.94;99.36;103185.84;5042500;28;19977;-73
2023/04/03 07:51:05;;;;;;;;;;;;;;;5.31;95.76;103192.31;5058603;28;19928;-74
2023/04/03 07:53:30;;;;;;;;;;;;;;;4.96;96.12;103193.81;5057155;28;19917;-72
2023/04/03 07:55:56;;;;;;;;;;;;;;;4.83;93.30;103187.78;5027179;28;19924;-74
2023/04/03 07:58:22;;;;;;;;;;;;;;;5.06;91.10;103194.53;5038331;28;19976;-73
2023/04/03 08:00:47;;;;;;;;;;;;;;;5.14;90.25;103194.41;5016604;28;20031;-72
2023/04/03 08:03:13;;;;;;;;;;;;;;;5.47;90.71;103200.03;5040324;28;19921;-73
2023/04/03 08:05:39;;;;;;;;;;;;;;;5.68;90.66;103190.75;5039831;28;20027;-72
2023/04/03 08:08:05;;;;;;;;;;;;;;;5.68;87.55;103191.66;5038859;28;20001;-73
2023/04/03 08:10:31;;;;;;;;;;;;;;;5.73;87.18;103190.66;5038400;28;20019;-73
2023/04/03 08:12:56;;;;;;;;;;;;;;;6.02;86.56;103194.56;5040337;28;19920;-73
2023/04/03 08:15:21;;;;;;;;;;;;;;;6.02;78.29;103192.78;5049415;28;19971;-73
2023/04/03 08:17:47;;;;;;;;;;;;;;;6.30;77.15;103186.88;5036603;28;19925;-75
2023/04/03 08:20:12;;;;;;;;;;;;;;;6.33;75.87;103188.56;5057227;28;19963;-72
2023/04/03 08:22:37;;;;;;;;;;;;;;;6.21;71.43;103193.28;5036779;28;19927;-73
2023/04/03 08:25:02;;;;;;;;;;;;;;;6.19;71.71;103203.09;5019118;28;20437;-73
2023/04/03 08:27:28;;;;;;;;;;;;;;;6.14;64.66;103195.19;5036248;28;20414;-74
2023/04/03 08:29:53;;;;;;;;;;;;;;;6.34;68.41;103201.00;5037265;28;19927;-73
2023/04/03 08:32:19;;;;;;;;;;;;;;;6.79;71.72;103198.19;5052554;28;19924;-74
2023/04/03 08:34:44;;;;;;;;;;;;;;;6.90;69.65;103195.25;5037499;28;20981;-74
2023/04/03 08:37:09;;;;;;;;;;;;;;;6.96;72.22;103197.78;5034830;28;20378;-73
2023/04/03 08:39:35;;;;;;;;;;;;;;;7.12;60.92;103203.59;5051456;28;20379;-74
2023/04/03 08:42:02;;;;;;;;;;;;;;;6.66;60.79;103200.25;5039242;28;19978;-72
2023/04/03 08:44:40;;;;;;;;;;;;;;;6.65;59.48;103197.63;5056001;28;19989;-73
2023/04/03 08:47:25;;;;;;;;;;;;;;;7.05;64.04;103196.66;5038453;28;20337;-73
2023/04/03 08:49:59;;;;;;;;;;;;;;;7.46;59.85;103208.09;5017959;28;19935;-73
2023/04/03 08:52:43;;;;;;;;;;;;;;;7.50;58.28;103203.53;5036412;28;19920;-72
2023/04/03 08:55:27;;;;;;;;;;;;;;;7.42;54.74;103209.06;5032128;28;19943;-74
2023/04/03 08:58:25;;;;;;;;;;;;;;;7.59;55.06;103207.75;5053715;28;19924;-72
2023/04/03 09:00:51;;;;;;;;;;;;;;;7.92;58.74;103210.41;5000676;28;19920;-73
2023/04/03 09:03:18;;;;;;;;;;;;;;;7.93;57.14;103204.13;5055252;28;19924;-73
2023/04/03 09:05:51;;;;;;;;;;;;;;;8.23;58.54;103205.00;5036318;28;19920;-73
2023/04/03 09:08:22;;;;;;;;;;;;;;;8.37;57.22;103201.06;5033744;28;19920;-72
2023/04/03 09:10:48;;;;;;;;;;;;;;;7.96;54.69;103202.22;5053450;28;19921;-73
2023/04/03 09:13:25;;;;;;;;;;;;;;;8.23;53.89;103207.69;5050532;28;19931;-73
2023/04/03 09:15:50;;;;;;;;;;;;;;;8.61;56.19;103203.91;5048186;28;19931;-72
2023/04/03 09:18:27;;;;;;;;;;;;;;;8.60;51.40;103199.50;5031204;28;19924;-73
2023/04/03 09:21:04;;;;;;;;;;;;;;;8.27;51.58;103219.19;5034815;28;19920;-72
2023/04/03 09:23:32;;;;;;;;;;;;;;;7.98;49.83;103209.34;5034421;28;19931;-73
2023/04/03 09:26:03;;;;;;;;;;;;;;;8.46;52.69;103208.81;5034681;28;19978;-72
2023/04/03 09:28:28;;;;;;;;;;;;;;;8.59;44.37;103222.72;5041500;28;19920;-74
2023/04/03 09:30:54;;;;;;;;;;;;;;;8.16;43.10;103221.31;5029871;28;20398;-74
2023/04/03 09:33:19;;;;;;;;;;;;;;;8.54;45.34;103217.50;5051524;28;19948;-73
2023/04/03 09:35:45;;;;;;;;;;;;;;;8.74;44.90;103209.75;5031783;28;19962;-73
2023/04/03 09:38:10;;;;;;;;;;;;;;;8.95;44.63;103203.69;5036230;28;19963;-73
2023/04/03 09:40:38;;;;;;;;;;;;;;;9.04;46.92;103205.19;5055543;28;19924;-72
2023/04/03 09:43:15;;;;;;;;;;;;;;;9.00;45.61;103209.78;5054803;28;19943;-74
2023/04/03 09:45:41;;;;;;;;;;;;;;;9.26;43.57;103207.16;5037036;28;19924;-74
2023/04/03 09:48:08;;;;;;;;;;;;;;;9.17;41.89;103212.84;5054042;28;19999;-73
2023/04/03 09:50:35;;;;;;;;;;;;;;;8.80;39.25;103196.19;5045466;28;19934;-75
2023/04/03 09:53:02;;;;;;;;;;;;;;;8.63;37.71;103189.53;5035569;28;19924;-75
2023/04/03 09:55:29;;;;;;;;;;;;;;;9.01;41.84;103183.84;5038912;28;19924;-73
2023/04/03 09:57:54;;;;;;;;;;;;;;;9.42;41.45;103183.34;5055136;28;19929;-73
2023/04/03 10:00:39;;;;;;;;;;;;;;;9.55;38.51;103182.00;5033400;28;19921;-73
2023/04/03 10:03:04;;;;;;;;;;;;;;;9.54;39.14;103179.34;5039905;28;19920;-74
2023/04/03 10:05:33;;;;;;;;;;;;;;;9.54;34.86;103198.13;5033656;28;19971;-74
2023/04/03 10:08:18;;;;;;;;;;;;;;;9.44;35.53;103185.06;5052449;28;19974;-74
2023/04/03 10:10:45;;;;;;;;;;;;;;;10.02;36.47;103186.53;5017493;28;20077;-74
2023/04/03 10:13:11;;;;;;;;;;;;;;;9.93;34.78;103192.25;5034997;28;19982;-74
2023/04/03 10:15:48;;;;;;;;;;;;;;;10.00;34.91;103185.72;5052681;28;20019;-73
2023/04/03 10:18:27;;;;;;;;;;;;;;;10.22;36.42;103174.16;5051800;28;20194;-73
2023/04/03 10:20:52;;;;;;;;;;;;;;;10.61;35.49;103175.34;5054229;28;20111;-74
2023/04/03 10:23:19;;;;;;;;;;;;;;;11.09;35.38;103176.91;5053713;28;20408;-73
2023/04/03 10:26:04;;;;;;;;;;;;;;;10.75;33.98;103175.63;5051865;28;20020;-74
2023/04/03 10:28:38;;;;;;;;;;;;;;;11.51;34.84;103160.81;5054469;28;20029;-73
2023/04/03 10:31:11;;;;;;;;;;;;;;;11.58;35.01;103161.38;5050148;28;19959;-73
2023/04/03 10:33:48;;;;;;;;;;;;;;;10.94;33.20;103167.69;5056148;28;19937;-74
2023/04/03 10:36:18;;;;;;;;;;;;;;;11.52;35.77;103143.72;5059441;28;20303;-74
2023/04/03 10:38:52;;;;;;;;;;;;;;;11.57;34.49;103140.81;5038344;28;19934;-74
2023/04/03 10:41:28;;;;;;;;;;;;;;;11.96;34.11;103116.56;5052877;28;20141;-73
2023/04/03 10:43:56;;;;;;;;;;;;;;;11.35;33.56;103131.88;5032490;28;20130;-73
2023/04/03 10:46:21;;;;;;;;;;;;;;;11.25;32.63;103139.47;5036049;28;20463;-74
2023/04/03 10:48:49;;;;;;;;;;;;;;;11.01;29.60;103165.59;5055120;28;19928;-74
2023/04/03 10:51:17;;;;;;;;;;;;;;;10.56;28.56;103172.84;5052200;28;19928;-75
2023/04/03 10:53:43;;;;;;;;;;;;;;;10.78;29.67;103153.16;5059666;28;19920;-75
2023/04/03 10:56:13;;;;;;;;;;;;;;;10.89;32.12;103148.19;5064550;28;19923;-75
2023/04/03 10:58:45;;;;;;;;;;;;;;;11.33;31.53;103124.84;5054021;28;19925;-74
2023/04/03 11:01:13;;;;;;;;;;;;;;;11.93;30.40;103134.66;5016738;28;19920;-74
2023/04/03 11:03:40;;;;;;;;;;;;;;;11.74;32.87;103127.44;5037938;28;20358;-75
2023/04/03 11:06:08;;;;;;;;;;;;;;;12.70;30.32;103130.09;5039430;28;20007;-74
2023/04/03 11:08:34;;;;;;;;;;;;;;;12.79;32.16;103115.25;5038212;28;19931;-74
2023/04/03 11:11:00;;;;;;;;;;;;;;;12.72;31.46;103110.19;5038103;28;19995;-74
2023/04/03 11:13:33;;;;;;;;;;;;;;;13.56;31.27;103111.25;5054064;28;19920;-74
2023/04/03 11:15:58;;;;;;;;;;;;;;;13.87;30.64;103117.66;5036297;28;19955;-75
2023/04/03 11:18:27;;;;;;;;;;;;;;;13.24;29.36;103126.44;5036283;28;20352;-76
2023/04/03 11:21:13;;;;;;;;;;;;;;;13.60;31.03;103111.97;5036444;28;19932;-74
2023/04/03 11:23:39;;;;;;;;;;;;;;;14.00;31.94;103098.09;5050573;28;19974;-75
2023/04/03 11:26:11;;;;;;;;;;;;;;;12.51;29.65;103120.25;5042038;28;20321;-75
2023/04/03 11:28:37;;;;;;;;;;;;;;;12.00;31.96;103102.03;5041533;28;19917;-76
2023/04/03 11:31:21;;;;;;;;;;;;;;;12.87;33.05;103086.09;5020266;28;19983;-76
2023/04/03 11:33:49;;;;;;;;;;;;;;;13.01;34.48;103088.94;5056760;28;20337;-75
2023/04/03 11:36:20;;;;;;;;;;;;;;;12.51;33.80;103089.72;5057686;28;19916;-74
2023/04/03 11:38:46;;;;;;;;;;;;;;;12.77;33.23;103085.69;5054294;28;20436;-74
2023/04/03 11:41:11;;;;;;;;;;;;;;;13.10;31.72;103100.19;5041234;28;20026;-74
2023/04/03 11:43:56;;;;;;;;;;;;;;;13.18;30.65;103109.63;5057933;28;19973;-74
2023/04/03 11:46:22;;;;;;;;;;;;;;;14.17;30.23;103098.00;5053119;28;19928;-75
2023/04/03 11:48:48;;;;;;;;;;;;;;;14.58;29.88;103101.06;5057828;28;20345;-75
2023/04/03 11:51:16;;;;;;;;;;;;;;;14.50;30.05;103098.81;5053488;28;19928;-76
2023/04/03 11:53:41;;;;;;;;;;;;;;;13.80;29.83;103090.16;5058184;28;20298;-75
2023/04/03 11:56:27;;;;;;;;;;;;;;;14.21;30.74;103085.16;5040012;28;19955;-76
2023/04/03 11:59:10;;;;;;;;;;;;;;;13.97;30.66;103092.84;5057881;28;20365;-75
2023/04/03 12:01:44;;;;;;;;;;;;;;;15.11;33.83;103064.53;5058234;28;19920;-74
2023/04/03 12:04:13;;;;;;;;;;;;;;;14.15;30.30;103081.00;5051660;28;20417;-77
2023/04/03 12:06:38;;;;;;;;;;;;;;;14.02;34.31;103048.41;5023352;28;20274;-75
2023/04/03 12:09:04;;;;;;;;;;;;;;;15.25;29.13;103090.72;5058137;28;20440;-75
2023/04/03 12:11:30;;;;;;;;;;;;;;;15.53;31.52;103075.47;5040245;28;20375;-75
2023/04/03 12:13:55;;;;;;;;;;;;;;;15.45;30.35;103075.09;5059065;28;19961;-75
2023/04/03 12:16:22;;;;;;;;;;;;;;;15.01;29.32;103085.00;5038205;28;19946;-74
2023/04/03 12:18:56;;;;;;;;;;;;;;;16.37;31.99;103064.66;5059167;28;19969;-75
2023/04/03 12:21:22;;;;;;;;;;;;;;;15.53;28.82;103074.59;5051830;28;19920;-75
2023/04/03 12:23:58;;;;;;;;;;;;;;;15.63;29.10;103072.16;5057391;28;19920;-75
2023/04/03 12:26:25;;;;;;;;;;;;;;;16.67;29.53;103063.53;5055687;28;19968;-74
2023/04/03 12:28:52;;;;;;;;;;;;;;;16.27;28.19;103066.25;5037815;28;19931;-75
2023/04/03 12:31:17;;;;;;;;;;;;;;;16.38;29.96;103058.25;5036361;28;20039;-76
2023/04/03 12:33:47;;;;;;;;;;;;;;;16.49;30.32;103039.44;5057228;28;20165;-75
2023/04/03 12:36:23;;;;;;;;;;;;;;;15.39;30.10;103033.03;5038278;28;19920;-76
2023/04/03 12:38:51;;;;;;;;;;;;;;;15.07;30.45;103026.94;5038731;28;19924;-75